To NAV CANADA Home Page Login to a new session Search on AWWS site Disclaimer Vers la page française équivalente Tips FAQ What's new on the site To the Forecasts and Observations / NOTAM section To "File a Flight Plan" website Publications and other links Update of the User's profile FIC Telephone Numbers My Weather Data Folder Route Weather Data Regional Weather Data Local Weather Data To the Forecasts and Observations / NOTAM section
Request Generated 11/22/2017 at 13:04:25 UTC . Weather information available at that time is displayed.


Go to a specific product

Save this request - Inactive

METAR/TAF

OTTAWA/GATINEAU/QC    

METAR CYND 221300Z 28007KT 12SM BKN055 01/00 A2998 RMK SC7 SLP157=
METAR CYND 221200Z 25004KT 15SM BKN060 00/00 A2995 RMK SC7 SLP147=
LWIS CYND 221100Z AUTO 27005KT 00/M00 A2992=

*** REMARK        : Forecast period has ended; this was the last TAF issued
*** REMARQUE : La période de prévision est échue; ceci était le dernier TAF qui a été émis
TAF CYND 212338Z 2200/2202 22010KT P6SM BKN030 OVC140 TEMPO 2201/2202
P6SM -SHRA BKN015 OVC030
RMK NXT FCST WILL BE ISSUED AT 221345Z=

OTTAWA/MACDONALD-CARTIER INTL/ON    

METAR CYOW 221300Z 27007KT 15SM FEW030 BKN052 BKN080 00/M00 A2998 RMK
SC1SC5AC1 SLP158=
METAR CYOW 221200Z 21005KT 6SM BR SCT040 OVC062 00/M00 A2996 RMK
SC3SC5 SLP150=
METAR CYOW 221100Z 21005KT 4SM BR FEW001 OVC040 00/M00 A2993 RMK
SF1SC8 SF TR VIS NW 15 SLP140=

TAF CYOW 221138Z 2212/2312 VRB03KT P6SM BKN070 TEMPO 2212/2214 4SM BR
BKN010 BKN070
FM221400 31010KT P6SM BKN025 BKN070 TEMPO 2214/2217 BKN020 BKN070
FM221700 31015KT P6SM BKN030
FM222300 31010KT P6SM SCT030
BECMG 2305/2307 24005KT
RMK NXT FCST BY 221500Z=


GRAPHICAL FA CLOUDS & WEATHER FORECASTS
To the Product Selector
Graphical FA gfacn33      

Your time UTC time
Weather data provided by Environment Canada and NAV CANADA